createdAt,value
2022-09-07T00:00:58.161Z,61.17
2022-09-07T00:03:24.711Z,60.93
2022-09-07T00:05:51.980Z,61.17
2022-09-07T00:08:19.386Z,61.09
2022-09-07T00:10:53.817Z,61.21
2022-09-07T00:13:20.942Z,61.06
2022-09-07T00:15:47.369Z,60.76
2022-09-07T00:18:13.897Z,60.73
2022-09-07T00:20:40.338Z,60.67
2022-09-07T00:23:06.786Z,60.59
2022-09-07T00:25:37.993Z,60.78
2022-09-07T00:28:04.501Z,60.52
2022-09-07T00:30:30.881Z,60.44
2022-09-07T00:32:57.225Z,60.62
2022-09-07T00:35:23.622Z,60.47
2022-09-07T00:37:49.999Z,60.75
2022-09-07T00:40:16.407Z,60.57
2022-09-07T00:42:42.768Z,60.62
2022-09-07T00:45:10.031Z,60.51
2022-09-07T00:47:42.660Z,60.55
2022-09-07T00:50:28.349Z,60.48
2022-09-07T00:52:57.963Z,60.73
2022-09-07T00:55:24.777Z,60.46
2022-09-07T00:57:53.128Z,60.79
2022-09-07T01:00:19.566Z,60.77
2022-09-07T01:02:47.294Z,60.97
2022-09-07T01:05:17.297Z,60.71
2022-09-07T01:07:44.507Z,60.93
2022-09-07T01:10:11.526Z,60.80
2022-09-07T01:12:37.914Z,60.77
2022-09-07T01:15:04.727Z,60.98
2022-09-07T01:17:43.244Z,61.09
2022-09-07T01:20:09.647Z,61.20
2022-09-07T01:22:56.275Z,61.12
2022-09-07T01:25:35.311Z,60.86
2022-09-07T01:28:13.868Z,61.09
2022-09-07T01:30:42.880Z,61.26
2022-09-07T01:33:18.622Z,60.99
2022-09-07T01:35:55.330Z,61.14
2022-09-07T01:38:28.311Z,61.09
2022-09-07T01:41:02.819Z,61.37
2022-09-07T01:43:35.367Z,61.35
2022-09-07T01:46:03.549Z,61.24
2022-09-07T01:48:32.243Z,61.37
2022-09-07T01:51:02.314Z,61.40
2022-09-07T01:53:33.452Z,61.48
2022-09-07T01:56:08.447Z,61.33
2022-09-07T01:58:34.816Z,61.26
2022-09-07T02:01:23.779Z,61.08
2022-09-07T02:03:56.998Z,61.24
2022-09-07T02:06:26.744Z,61.05
2022-09-07T02:08:58.493Z,61.14
2022-09-07T02:11:30.642Z,61.21
2022-09-07T02:14:00.747Z,61.16
2022-09-07T02:16:28.363Z,60.95
2022-09-07T02:19:13.292Z,61.03
2022-09-07T02:21:41.771Z,61.07
2022-09-07T02:24:21.136Z,60.96
2022-09-07T02:26:49.572Z,61.01
2022-09-07T02:29:15.992Z,61.08
2022-09-07T02:31:42.375Z,60.91
2022-09-07T02:34:08.766Z,60.89
2022-09-07T02:36:45.892Z,60.97
2022-09-07T02:39:12.729Z,60.96
2022-09-07T02:41:40.331Z,61.01
2022-09-07T02:46:40.143Z,61.08
2022-09-07T02:49:21.550Z,60.76
2022-09-07T02:51:54.179Z,60.98
2022-09-07T02:54:20.679Z,61.01
2022-09-07T02:57:06.479Z,61.13
2022-09-07T02:59:35.615Z,60.78
2022-09-07T03:02:04.833Z,60.85
2022-09-07T03:04:31.250Z,61.05
2022-09-07T03:07:04.499Z,60.97
2022-09-07T03:09:35.372Z,60.91
2022-09-07T03:12:03.036Z,60.91
2022-09-07T03:14:33.322Z,60.90
2022-09-07T03:17:00.347Z,60.74
2022-09-07T03:19:27.120Z,60.83
2022-09-07T03:21:53.662Z,60.77
2022-09-07T03:24:20.065Z,60.80
2022-09-07T03:26:47.448Z,60.83
2022-09-07T03:29:14.398Z,60.95
2022-09-07T03:31:40.828Z,60.90
2022-09-07T03:34:07.370Z,61.03
2022-09-07T03:36:33.834Z,60.95
2022-09-07T03:39:00.301Z,60.78
2022-09-07T03:41:27.237Z,60.65
2022-09-07T03:43:53.880Z,60.83
2022-09-07T03:46:20.584Z,60.93
2022-09-07T03:48:48.068Z,60.87
2022-09-07T03:51:15.209Z,60.94
2022-09-07T03:53:43.692Z,60.95
2022-09-07T03:56:14.818Z,60.91
2022-09-07T03:58:41.193Z,60.94
2022-09-07T04:01:09.172Z,60.70
2022-09-07T04:03:36.038Z,60.84
2022-09-07T04:06:03.034Z,60.80
2022-09-07T04:08:30.668Z,60.93
2022-09-07T04:10:57.960Z,60.78
2022-09-07T04:13:25.124Z,60.78
2022-09-07T04:15:53.892Z,61.04
2022-09-07T04:18:20.535Z,60.82
2022-09-07T04:20:47.402Z,60.76
2022-09-07T04:23:14.033Z,60.91
2022-09-07T04:25:47.135Z,60.86
2022-09-07T04:28:13.546Z,60.77
2022-09-07T04:30:40.003Z,60.96
2022-09-07T04:33:06.439Z,60.72
2022-09-07T04:35:36.229Z,60.73
2022-09-07T04:38:02.607Z,60.75
2022-09-07T04:40:28.990Z,60.63
2022-09-07T04:42:55.463Z,60.70
2022-09-07T04:45:21.934Z,60.49
2022-09-07T04:47:48.866Z,60.72
2022-09-07T04:50:18.531Z,60.92
2022-09-07T04:52:45.228Z,60.80
2022-09-07T04:55:12.265Z,60.48
2022-09-07T04:57:38.717Z,60.68
2022-09-07T05:00:08.617Z,60.89
2022-09-07T05:02:35.096Z,60.69
2022-09-07T05:05:02.876Z,60.65
2022-09-07T05:07:29.488Z,60.78
2022-09-07T05:09:56.755Z,60.65
2022-09-07T05:12:23.236Z,60.50
2022-09-07T05:14:49.606Z,60.73
2022-09-07T05:17:16.184Z,60.75
2022-09-07T05:19:42.603Z,60.57
2022-09-07T05:22:08.988Z,60.54
2022-09-07T05:24:36.750Z,60.49
2022-09-07T05:27:03.932Z,60.59
2022-09-07T05:32:17.137Z,60.40
2022-09-07T05:34:43.570Z,60.71
2022-09-07T05:37:10.383Z,60.42
2022-09-07T05:39:36.866Z,60.65
2022-09-07T05:42:03.665Z,60.61
2022-09-07T05:44:47.131Z,60.51
2022-09-07T05:47:13.953Z,60.44
2022-09-07T05:49:40.371Z,60.68
2022-09-07T05:52:06.941Z,60.28
2022-09-07T05:54:33.323Z,60.55
2022-09-07T05:56:59.748Z,60.39
2022-09-07T05:59:26.128Z,60.56
2022-09-07T06:01:52.623Z,60.57
2022-09-07T06:04:19.278Z,60.60
2022-09-07T06:06:59.336Z,60.41
2022-09-07T06:09:32.223Z,60.61
2022-09-07T06:11:58.849Z,60.41
2022-09-07T06:14:25.244Z,60.41
2022-09-07T06:16:51.681Z,60.46
2022-09-07T06:19:18.165Z,60.56
2022-09-07T06:21:44.533Z,60.62
2022-09-07T06:24:10.950Z,60.34
2022-09-07T06:26:37.392Z,60.50
2022-09-07T06:29:03.937Z,60.40
2022-09-07T06:31:30.737Z,60.47
2022-09-07T06:33:59.334Z,60.55
2022-09-07T06:36:27.805Z,60.58
2022-09-07T06:38:58.909Z,60.65
2022-09-07T06:44:12.918Z,60.45
2022-09-07T06:49:25.805Z,60.40
2022-09-07T06:51:52.235Z,60.57
2022-09-07T06:57:09.098Z,60.44
2022-09-07T06:59:36.172Z,60.67
2022-09-07T07:02:02.635Z,60.59
2022-09-07T07:04:29.058Z,60.63
2022-09-07T07:06:55.482Z,60.73
2022-09-07T07:09:21.874Z,60.66
2022-09-07T07:11:48.359Z,60.60
2022-09-07T07:14:15.427Z,60.83
2022-09-07T07:16:41.932Z,60.71
2022-09-07T07:19:08.395Z,60.79
2022-09-07T07:21:55.195Z,60.68
2022-09-07T07:24:21.520Z,60.63
2022-09-07T07:26:48.751Z,60.44
2022-09-07T07:29:18.502Z,60.62
2022-09-07T07:31:46.888Z,60.46
2022-09-07T07:34:13.437Z,60.38
2022-09-07T07:36:40.148Z,59.88
2022-09-07T07:39:06.717Z,59.95
2022-09-07T07:44:20.605Z,59.63
2022-09-07T07:46:48.006Z,59.21
2022-09-07T07:49:14.437Z,59.27
2022-09-07T07:54:27.362Z,58.72
2022-09-07T07:56:53.755Z,58.94
2022-09-07T07:59:20.180Z,58.61
2022-09-07T08:01:46.785Z,58.39
2022-09-07T08:04:13.214Z,58.96
2022-09-07T08:06:42.112Z,59.22
2022-09-07T08:09:08.467Z,59.40
2022-09-07T08:11:35.674Z,59.13
2022-09-07T08:14:04.896Z,59.28
2022-09-07T08:16:31.646Z,58.88
2022-09-07T08:18:58.103Z,58.85
2022-09-07T08:21:25.254Z,59.08
2022-09-07T08:23:51.589Z,59.28
2022-09-07T08:26:17.912Z,59.44
2022-09-07T08:28:45.550Z,59.55
2022-09-07T08:31:12.847Z,59.52
2022-09-07T08:33:39.615Z,59.74
2022-09-07T08:36:07.746Z,59.57
2022-09-07T08:38:35.320Z,59.74
2022-09-07T08:41:02.543Z,59.59
2022-09-07T08:43:35.062Z,59.59
2022-09-07T08:46:19.643Z,59.18
2022-09-07T08:48:46.450Z,59.42
2022-09-07T08:51:16.121Z,59.05
2022-09-07T08:53:44.701Z,59.44
2022-09-07T08:56:14.799Z,59.23
2022-09-07T08:58:49.085Z,59.66
2022-09-07T09:01:33.303Z,59.69
2022-09-07T09:04:17.019Z,59.09
2022-09-07T09:07:09.348Z,58.59
2022-09-07T09:09:52.314Z,59.34
2022-09-07T09:12:37.930Z,59.21
2022-09-07T09:15:07.371Z,59.54
2022-09-07T09:17:38.056Z,59.80
2022-09-07T09:20:10.300Z,59.83
2022-09-07T09:22:36.687Z,59.74
2022-09-07T09:25:20.086Z,59.58
2022-09-07T09:27:47.169Z,59.98
2022-09-07T09:30:21.066Z,60.06
2022-09-07T09:32:48.861Z,59.63
2022-09-07T09:35:15.252Z,59.53
2022-09-07T09:37:42.267Z,59.65
2022-09-07T09:40:22.647Z,60.16
2022-09-07T09:42:58.334Z,59.98
2022-09-07T09:45:27.252Z,60.52
2022-09-07T09:47:54.721Z,60.08
2022-09-07T09:53:22.091Z,60.34
2022-09-07T09:55:51.135Z,60.64
2022-09-07T10:01:26.972Z,60.38
2022-09-07T10:06:25.020Z,60.53
2022-09-07T10:08:58.972Z,60.47
2022-09-07T10:14:32.192Z,60.63
2022-09-07T10:16:59.554Z,60.73
2022-09-07T10:19:36.740Z,60.81
2022-09-07T10:22:20.889Z,60.80
2022-09-07T10:24:47.267Z,61.22
2022-09-07T10:27:40.970Z,61.21
2022-09-07T10:30:13.623Z,60.96
2022-09-07T10:32:39.947Z,60.77
2022-09-07T10:35:15.412Z,61.22
2022-09-07T10:38:00.686Z,61.23
2022-09-07T10:40:27.296Z,61.40
2022-09-07T10:45:48.323Z,61.69
2022-09-07T10:48:23.673Z,61.54
2022-09-07T10:50:56.688Z,61.80
2022-09-07T10:53:47.626Z,61.73
2022-09-07T10:56:25.797Z,61.96
2022-09-07T10:59:02.362Z,62.22
2022-09-07T11:01:32.396Z,61.93
2022-09-07T11:03:58.890Z,62.07
2022-09-07T11:06:29.938Z,62.22
2022-09-07T11:09:17.183Z,62.32
2022-09-07T11:12:02.144Z,62.40
2022-09-07T11:14:31.484Z,62.42
2022-09-07T11:17:01.087Z,62.56
2022-09-07T11:19:38.145Z,62.46
2022-09-07T11:22:07.860Z,62.69
2022-09-07T11:27:44.137Z,62.60
2022-09-07T11:30:17.111Z,62.83
2022-09-07T11:33:02.519Z,62.89
2022-09-07T11:35:31.662Z,63.01
2022-09-07T11:38:01.466Z,63.02
2022-09-07T11:40:30.662Z,62.86
2022-09-07T11:43:00.112Z,63.12
2022-09-07T11:45:40.188Z,63.07
2022-09-07T11:48:19.518Z,63.27
2022-09-07T11:50:51.249Z,63.29
2022-09-07T11:53:20.131Z,63.42
2022-09-07T11:55:49.589Z,63.07
2022-09-07T11:58:28.393Z,63.48
2022-09-07T12:01:01.531Z,63.28
2022-09-07T12:03:34.066Z,63.17
2022-09-07T12:06:19.203Z,63.32
2022-09-07T12:09:04.438Z,63.22
2022-09-07T12:11:49.656Z,63.57
2022-09-07T12:14:27.246Z,63.59
2022-09-07T12:16:56.498Z,63.58
2022-09-07T12:19:24.648Z,63.75
2022-09-07T12:21:51.011Z,63.83
2022-09-07T12:24:36.214Z,63.65
2022-09-07T12:27:03.466Z,63.79
2022-09-07T12:29:30.328Z,63.61
2022-09-07T12:31:59.777Z,64.08
2022-09-07T12:34:33.937Z,64.00
2022-09-07T12:37:12.415Z,63.88
2022-09-07T12:39:41.356Z,64.05
2022-09-07T12:45:15.746Z,64.03
2022-09-07T12:47:42.142Z,64.07
2022-09-07T12:50:28.429Z,64.20
2022-09-07T12:53:14.266Z,64.36
2022-09-07T12:58:42.950Z,64.41
2022-09-07T13:01:21.001Z,64.40
2022-09-07T13:04:06.359Z,64.40
2022-09-07T13:09:22.055Z,64.57
2022-09-07T13:11:48.523Z,64.20
2022-09-07T13:14:15.819Z,64.24
2022-09-07T13:19:59.260Z,64.25
2022-09-07T13:22:35.436Z,64.58
2022-09-07T13:25:03.484Z,64.54
2022-09-07T13:27:35.627Z,64.94
2022-09-07T13:30:05.110Z,64.93
2022-09-07T13:35:21.555Z,65.19
2022-09-07T13:37:59.292Z,64.99
2022-09-07T13:40:30.533Z,65.16
2022-09-07T13:42:58.588Z,64.92
2022-09-07T13:45:34.186Z,64.66
2022-09-07T13:48:16.103Z,64.94
2022-09-07T13:50:57.755Z,64.85
2022-09-07T13:53:25.174Z,64.94
2022-09-07T13:56:02.320Z,65.25
2022-09-07T13:58:33.491Z,64.99
2022-09-07T14:01:02.608Z,65.05
2022-09-07T14:03:33.604Z,65.15
2022-09-07T14:06:18.618Z,64.94
2022-09-07T14:08:49.791Z,64.94
2022-09-07T14:11:17.508Z,64.83
2022-09-07T14:13:43.847Z,64.96
2022-09-07T14:16:10.385Z,65.27
2022-09-07T14:18:39.424Z,64.90
2022-09-07T14:21:09.134Z,65.25
2022-09-07T14:23:36.738Z,65.04
2022-09-07T14:26:22.574Z,65.28
2022-09-07T14:28:51.095Z,65.26
2022-09-07T14:31:19.717Z,65.71
2022-09-07T14:33:53.726Z,65.46
2022-09-07T14:36:42.336Z,65.57
2022-09-07T14:39:09.188Z,65.65
2022-09-07T14:41:40.614Z,65.78
2022-09-07T14:44:06.965Z,65.71
2022-09-07T14:46:34.212Z,65.43
2022-09-07T14:49:02.794Z,65.04
2022-09-07T14:51:36.197Z,65.09
2022-09-07T14:54:04.514Z,65.48
2022-09-07T14:56:35.542Z,65.10
2022-09-07T14:59:02.154Z,65.38
2022-09-07T15:01:44.118Z,65.27
2022-09-07T15:04:19.070Z,65.17
2022-09-07T15:07:02.313Z,64.79
2022-09-07T15:09:35.224Z,65.12
2022-09-07T15:12:02.930Z,65.13
2022-09-07T15:14:29.419Z,65.10
2022-09-07T15:19:46.464Z,65.20
2022-09-07T15:22:13.667Z,65.10
2022-09-07T15:24:40.035Z,65.17
2022-09-07T15:27:17.831Z,65.27
2022-09-07T15:29:44.179Z,65.16
2022-09-07T15:32:10.696Z,65.27
2022-09-07T15:34:37.088Z,65.20
2022-09-07T15:38:00.313Z,65.27
2022-09-07T15:39:50.826Z,65.10
2022-09-07T15:45:05.272Z,65.21
2022-09-07T15:47:51.160Z,65.17
2022-09-07T15:50:18.240Z,65.20
2022-09-07T15:52:46.476Z,65.25
2022-09-07T15:55:13.617Z,65.09
2022-09-07T15:58:10.666Z,65.14
2022-09-07T16:00:26.509Z,65.22
2022-09-07T16:03:09.029Z,65.31
2022-09-07T16:05:35.727Z,65.35
2022-09-07T16:10:54.324Z,65.50
2022-09-07T16:13:24.038Z,65.61
2022-09-07T16:15:50.979Z,65.50
2022-09-07T16:18:17.838Z,65.50
2022-09-07T16:20:44.728Z,65.82
2022-09-07T16:23:13.940Z,65.89
2022-09-07T16:25:42.336Z,65.58
2022-09-07T16:28:09.237Z,65.97
2022-09-07T16:30:38.910Z,66.08
2022-09-07T16:33:05.457Z,66.14
2022-09-07T16:35:32.990Z,65.87
2022-09-07T16:40:46.391Z,65.85
2022-09-07T16:43:12.827Z,65.90
2022-09-07T16:48:25.510Z,66.33
2022-09-07T16:50:56.509Z,66.10
2022-09-07T16:53:25.750Z,66.17
2022-09-07T16:55:52.071Z,66.22
2022-09-07T17:01:09.334Z,66.17
2022-09-07T17:03:36.437Z,66.28
2022-09-07T17:06:03.495Z,66.38
2022-09-07T17:08:29.870Z,66.58
2022-09-07T17:11:00.823Z,66.56
2022-09-07T17:13:27.220Z,66.51
2022-09-07T17:15:53.826Z,66.89
2022-09-07T17:19:28.945Z,66.84
2022-09-07T17:21:06.795Z,67.33
2022-09-07T17:23:41.946Z,68.14
2022-09-07T17:26:14.652Z,68.49
2022-09-07T17:28:44.065Z,68.09
2022-09-07T17:32:23.989Z,67.75
2022-09-07T17:34:00.859Z,67.44
2022-09-07T17:36:28.084Z,67.30
2022-09-07T17:41:43.351Z,68.77
2022-09-07T17:44:09.785Z,68.87
2022-09-07T17:46:36.286Z,68.75
2022-09-07T17:49:02.792Z,69.05
2022-09-07T17:51:30.650Z,68.62
2022-09-07T17:53:59.017Z,68.48
2022-09-07T17:56:25.734Z,69.06
2022-09-07T17:58:52.623Z,68.52
2022-09-07T18:01:19.824Z,68.72
2022-09-07T18:03:46.434Z,68.57
2022-09-07T18:06:13.663Z,68.77
2022-09-07T18:08:40.051Z,68.66
2022-09-07T18:13:57.888Z,68.59
2022-09-07T18:16:29.254Z,68.64
2022-09-07T18:18:56.686Z,68.66
2022-09-07T18:21:24.657Z,68.56
2022-09-07T18:23:56.139Z,68.56
2022-09-07T18:26:23.204Z,69.32
2022-09-07T18:29:25.815Z,69.95
2022-09-07T18:31:40.147Z,69.75
2022-09-07T18:34:06.890Z,69.53
2022-09-07T18:36:34.119Z,69.62
2022-09-07T18:39:01.222Z,69.44
2022-09-07T18:41:27.583Z,69.34
2022-09-07T18:43:55.572Z,69.22
2022-09-07T18:46:23.340Z,69.45
2022-09-07T18:48:49.926Z,68.94
2022-09-07T18:51:16.997Z,69.02
2022-09-07T18:53:43.563Z,68.95
2022-09-07T18:56:14.197Z,69.00
2022-09-07T18:58:41.864Z,69.02
2022-09-07T19:01:12.691Z,68.84
2022-09-07T19:03:39.596Z,69.22
2022-09-07T19:06:08.588Z,68.98
2022-09-07T19:08:36.284Z,68.97
2022-09-07T19:11:03.636Z,69.11
2022-09-07T19:13:30.065Z,68.66
2022-09-07T19:16:03.090Z,69.05
2022-09-07T19:18:29.501Z,69.14
2022-09-07T19:20:55.834Z,69.43
2022-09-07T19:23:22.146Z,69.47
2022-09-07T19:25:48.935Z,69.27
2022-09-07T19:28:15.724Z,69.44
2022-09-07T19:30:42.056Z,69.44
2022-09-07T19:33:12.018Z,69.10
2022-09-07T19:35:38.385Z,69.23
2022-09-07T19:38:04.822Z,69.23
2022-09-07T19:40:31.186Z,68.99
2022-09-07T19:42:57.527Z,69.13
2022-09-07T19:45:23.918Z,68.97
2022-09-07T19:47:50.682Z,68.76
2022-09-07T19:50:19.425Z,68.65
2022-09-07T19:52:46.620Z,68.85
2022-09-07T19:55:13.002Z,68.88
2022-09-07T19:57:39.406Z,69.02
2022-09-07T20:00:06.239Z,68.56
2022-09-07T20:02:32.571Z,68.68
2022-09-07T20:04:59.092Z,68.84
2022-09-07T20:07:25.461Z,68.64
2022-09-07T20:09:53.087Z,68.65
2022-09-07T20:12:19.497Z,68.69
2022-09-07T20:14:45.952Z,68.58
2022-09-07T20:17:12.323Z,68.65
2022-09-07T20:19:38.774Z,68.69
2022-09-07T20:22:05.154Z,68.65
2022-09-07T20:24:31.556Z,68.74
2022-09-07T20:26:57.878Z,69.00
2022-09-07T20:29:27.633Z,68.79
2022-09-07T20:31:56.006Z,68.92
2022-09-07T20:34:22.367Z,68.68
2022-09-07T20:36:49.234Z,68.79
2022-09-07T20:39:16.496Z,68.78
2022-09-07T20:41:42.846Z,68.78
2022-09-07T20:44:09.427Z,68.65
2022-09-07T20:46:36.499Z,68.77
2022-09-07T20:49:03.866Z,68.69
2022-09-07T20:51:30.244Z,68.62
2022-09-07T20:53:56.667Z,68.38
2022-09-07T20:56:24.513Z,68.46
2022-09-07T20:58:55.419Z,68.41
2022-09-07T21:01:22.186Z,68.41
2022-09-07T21:03:49.844Z,68.54
2022-09-07T21:06:16.909Z,68.36
2022-09-07T21:08:43.849Z,68.43
2022-09-07T21:11:16.263Z,68.21
2022-09-07T21:13:43.087Z,68.38
2022-09-07T21:16:11.136Z,68.07
2022-09-07T21:18:38.031Z,68.20
2022-09-07T21:21:21.413Z,68.25
2022-09-07T21:23:48.128Z,68.17
2022-09-07T21:26:15.097Z,68.41
2022-09-07T21:28:41.423Z,68.13
2022-09-07T21:31:09.505Z,68.18
2022-09-07T21:33:36.597Z,68.16
2022-09-07T21:36:06.911Z,68.00
2022-09-07T21:38:34.353Z,68.20
2022-09-07T21:41:05.360Z,68.20
2022-09-07T21:43:31.709Z,68.11
2022-09-07T21:45:58.079Z,68.35
2022-09-07T21:48:24.468Z,68.07
2022-09-07T21:50:56.435Z,68.12
2022-09-07T21:53:22.819Z,68.33
2022-09-07T21:55:55.854Z,67.97
2022-09-07T21:58:22.403Z,68.17
2022-09-07T22:00:48.777Z,67.97
2022-09-07T22:03:15.279Z,67.98
2022-09-07T22:05:41.645Z,68.07
2022-09-07T22:08:07.954Z,67.83
2022-09-07T22:10:34.649Z,67.95
2022-09-07T22:13:01.121Z,68.07
2022-09-07T22:15:27.475Z,67.97
2022-09-07T22:17:54.123Z,68.00
2022-09-07T22:20:20.624Z,68.08
2022-09-07T22:22:47.407Z,67.59
2022-09-07T22:25:13.944Z,67.79
2022-09-07T22:27:40.302Z,67.56
2022-09-07T22:30:07.374Z,67.61
2022-09-07T22:32:33.726Z,67.61
2022-09-07T22:35:00.069Z,67.54
2022-09-07T22:37:26.805Z,67.63
2022-09-07T22:39:53.168Z,67.56
2022-09-07T22:42:19.570Z,67.54
2022-09-07T22:44:45.909Z,67.48
2022-09-07T22:47:12.352Z,67.44
2022-09-07T22:49:38.739Z,67.38
2022-09-07T22:52:05.157Z,67.41
2022-09-07T22:54:31.487Z,67.48
2022-09-07T22:56:57.847Z,67.43
2022-09-07T22:59:24.206Z,67.61
2022-09-07T23:01:50.524Z,67.47
2022-09-07T23:04:16.943Z,67.45
2022-09-07T23:06:43.696Z,67.30
2022-09-07T23:09:11.787Z,67.51
2022-09-07T23:11:38.723Z,67.42
2022-09-07T23:14:07.004Z,67.52
2022-09-07T23:16:33.374Z,67.25
2022-09-07T23:19:00.400Z,67.41
2022-09-07T23:21:27.392Z,67.44
2022-09-07T23:23:54.761Z,67.27
2022-09-07T23:26:22.183Z,67.48
2022-09-07T23:28:55.139Z,67.44
2022-09-07T23:31:21.675Z,67.31
2022-09-07T23:33:48.163Z,67.29
2022-09-07T23:36:14.906Z,67.49
2022-09-07T23:38:41.431Z,67.25
2022-09-07T23:41:07.818Z,67.37
2022-09-07T23:43:34.202Z,67.50
2022-09-07T23:46:00.751Z,67.43
2022-09-07T23:48:27.470Z,67.45
2022-09-07T23:50:54.295Z,67.53
2022-09-07T23:53:22.005Z,67.16
2022-09-07T23:55:50.100Z,67.43
2022-09-07T23:58:16.459Z,67.37
